Time;durP1;ratioP1;P1;durP2;ratioP2;P2;SDS_P1;SDS_P2;PMS_P1;PMS_P2;Temp;Humidity;BMP_temperature;BMP_pressure;BME280_temperature;BME280_humidity;BME280_pressure;Samples;Min_cycle;Max_cycle;Signal;HPM_P1;HPM_P2
2022/11/05 00:09:29;;;;;;;10.25;3.67;;;;;;;;;;5089071;28;20414;-75
2022/11/05 00:17:26;;;;;;;11.18;3.58;;;;;;;;;;5086577;28;20455;-74
2022/11/05 00:19:52;;;;;;;11.05;3.50;;;;;;;;;;5071213;28;20478;-75
2022/11/05 00:25:13;;;;;;;12.68;3.60;;;;;;;;;;5086809;28;20480;-74
2022/11/05 00:27:39;;;;;;;10.98;3.90;;;;;;;;;;5070777;28;20450;-76
2022/11/05 00:30:06;;;;;;;9.80;3.80;;;7.30;99.90;;;;;;5085575;28;20424;-75
2022/11/05 00:32:33;;;;;;;12.27;3.95;;;;;;;;;;5089165;28;20509;-74
2022/11/05 00:34:59;;;;;;;10.88;3.60;;;;;;;;;;5087920;28;20413;-75
2022/11/05 00:37:28;;;;;;;11.38;3.42;;;;;;;;;;5054756;28;20433;-75
2022/11/05 00:39:54;;;;;;;11.30;3.47;;;;;;;;;;5074028;28;20412;-75
2022/11/05 00:45:06;;;;;;;12.07;3.85;;;;;;;;;;5087153;28;20471;-76
2022/11/05 00:50:18;;;;;;;11.80;3.35;;;;;;;;;;5074774;28;20422;-75
2022/11/05 00:52:57;;;;;;;12.30;3.38;;;;;;;;;;5093209;28;21171;-75
2022/11/05 00:55:43;;;;;;;10.65;3.20;;;;;;;;;;5077258;28;20507;-76
2022/11/05 00:58:14;;;;;;;12.65;3.58;;;;;;;;;;5066417;28;20448;-75
2022/11/05 01:00:41;;;;;;;12.98;3.83;;;;;;;;;;5071858;28;20429;-75
2022/11/05 01:03:09;;;;;;;9.40;3.47;;;;;;;;;;5093377;28;20433;-75
2022/11/05 01:05:39;;;;;;;11.32;3.85;;;7.10;99.90;;;;;;5073090;28;20505;-75
2022/11/05 01:08:07;;;;;;;10.75;3.83;;;;;;;;;;5104920;28;20422;-75
2022/11/05 01:10:33;;;;;;;9.70;3.60;;;;;;;;;;5075396;28;20394;-75
2022/11/05 01:13:00;;;;;;;12.18;3.90;;;;;;;;;;5091897;28;20409;-75
2022/11/05 01:15:26;;;;;;;9.18;3.58;;;;;;;;;;5093012;28;20417;-75
2022/11/05 01:17:52;;;;;;;10.55;3.28;;;;;;;;;;5089799;28;20509;-75
2022/11/05 01:20:18;;;;;;;11.65;3.28;;;;;;;;;;5096232;28;20408;-75
2022/11/05 01:22:44;;;;;;;10.65;3.58;;;;;;;;;;5091028;28;20437;-75
2022/11/05 01:25:10;;;;;;;8.77;2.87;;;;;;;;;;5075065;28;20523;-75
2022/11/05 01:27:36;;;;;;;12.93;3.10;;;;;;;;;;5088953;28;20520;-75
2022/11/05 01:30:04;;;;;;;9.00;2.63;;;7.10;99.90;;;;;;5076371;28;20543;-75
2022/11/05 01:32:30;;;;;;;10.32;2.85;;;;;;;;;;5090429;28;20433;-75
2022/11/05 01:34:56;;;;;;;9.18;2.80;;;;;;;;;;5112970;28;20401;-75
2022/11/05 01:37:22;;;;;;;5.77;2.53;;;;;;;;;;5082329;28;20429;-75
2022/11/05 01:39:48;;;;;;;8.55;2.65;;;;;;;;;;5094253;28;20500;-75
2022/11/05 01:42:20;;;;;;;8.02;2.67;;;;;;;;;;5088620;28;20461;-75
2022/11/05 01:44:49;;;;;;;8.38;2.60;;;;;;;;;;5091472;28;20951;-75
2022/11/05 01:47:29;;;;;;;7.72;2.80;;;6.90;99.90;;;;;;5088105;28;20507;-76
2022/11/05 01:49:58;;;;;;;8.40;2.67;;;6.90;99.90;;;;;;5074288;28;20448;-74
2022/11/05 01:52:24;;;;;;;9.75;3.00;;;;;;;;;;5091027;28;20740;-74
2022/11/05 01:54:50;;;;;;;9.05;3.08;;;;;;;;;;5073416;28;20451;-74
2022/11/05 01:57:17;;;;;;;9.02;3.10;;;;;;;;;;5089379;28;20456;-75
2022/11/05 01:59:51;;;;;;;8.52;2.72;;;6.80;99.90;;;;;;5058295;28;20434;-75
2022/11/05 02:02:17;;;;;;;8.40;3.15;;;7.10;99.90;;;;;;5088143;28;20418;-75
2022/11/05 02:05:13;;;;;;;8.80;3.10;;;;;;;;;;5088899;28;20417;-75
2022/11/05 02:07:40;;;;;;;9.20;3.05;;;6.50;99.90;;;;;;5068644;28;20529;-75
2022/11/05 02:10:06;;;;;;;8.25;3.20;;;;;;;;;;5074692;28;20444;-75
2022/11/05 02:12:32;;;;;;;10.48;3.47;;;;;;;;;;5088658;28;20413;-74
2022/11/05 02:14:58;;;;;;;8.23;3.17;;;;;;;;;;5074000;28;20433;-74
2022/11/05 02:17:33;;;;;;;10.60;3.53;;;;;;;;;;5083752;28;20784;-74
2022/11/05 02:20:34;;;;;;;11.10;3.20;;;6.70;99.90;;;;;;5072790;28;20471;-74
2022/11/05 02:23:30;;;;;;;8.37;3.43;;;6.90;99.90;;;;;;5067484;28;20426;-75
2022/11/05 02:26:23;;;;;;;9.07;3.60;;;;;;;;;;5089717;28;20836;-75
2022/11/05 02:28:49;;;;;;;9.07;3.08;;;;;;;;;;5077806;28;20426;-74
2022/11/05 02:31:24;;;;;;;9.23;3.25;;;;;;;;;;5090580;28;20398;-74
2022/11/05 02:34:03;;;;;;;9.30;3.35;;;6.60;99.90;;;;;;5096032;28;20487;-75
2022/11/05 02:37:06;;;;;;;8.15;3.20;;;6.60;99.90;;;;;;5089788;28;20505;-74
2022/11/05 02:39:41;;;;;;;10.57;3.45;;;;;;;;;;5092038;28;20419;-75
2022/11/05 02:42:26;;;;;;;7.45;2.92;;;;;;;;;;5112075;28;20415;-74
2022/11/05 02:44:56;;;;;;;12.88;3.28;;;;;;;;;;5073737;28;20438;-74
2022/11/05 02:47:32;;;;;;;7.20;3.30;;;;;;;;;;5087727;28;20426;-74
2022/11/05 02:50:20;;;;;;;7.57;3.38;;;6.50;99.90;;;;;;5090069;28;20461;-74
2022/11/05 02:52:56;;;;;;;8.02;3.17;;;6.60;99.90;;;;;;5086753;28;20418;-74
2022/11/05 02:55:43;;;;;;;8.75;3.25;;;;;;;;;;5072347;28;20413;-75
2022/11/05 02:58:09;;;;;;;8.65;3.50;;;;;;;;;;5085431;28;20450;-75
2022/11/05 03:00:38;;;;;;;8.38;3.40;;;;;;;;;;5073426;28;20851;-74
2022/11/05 03:03:05;;;;;;;8.38;3.50;;;;;;;;;;5107403;28;20432;-74
2022/11/05 03:05:55;;;;;;;8.15;3.65;;;;;;;;;;5077680;28;20909;-74
2022/11/05 03:08:40;;;;;;;7.68;3.20;;;;;;;;;;5075783;28;20435;-75
2022/11/05 03:11:17;;;;;;;11.55;3.65;;;;;;;;;;5091158;28;20398;-75
2022/11/05 03:13:52;;;;;;;9.40;3.60;;;;;;;;;;5070543;28;20524;-75
2022/11/05 03:16:25;;;;;;;12.02;3.55;;;6.50;99.90;;;;;;5102756;28;20450;-75
2022/11/05 03:18:57;;;;;;;8.87;3.57;;;;;;;;;;5087187;28;20547;-75
2022/11/05 03:21:29;;;;;;;7.35;3.50;;;;;;;;;;5088921;28;20449;-75
2022/11/05 03:23:58;;;;;;;10.07;3.88;;;;;;;;;;5071875;28;20755;-75
2022/11/05 03:26:30;;;;;;;10.20;3.70;;;;;;;;;;5092147;28;20405;-75
2022/11/05 03:29:00;;;;;;;11.25;4.07;;;;;;;;;;5071923;28;20909;-75
2022/11/05 03:31:28;;;;;;;9.15;4.32;;;6.60;99.90;;;;;;5071005;28;20421;-75
2022/11/05 03:33:55;;;;;;;9.90;4.22;;;;;;;;;;5092872;28;20826;-75
2022/11/05 03:36:25;;;;;;;7.57;4.38;;;;;;;;;;5090584;28;20422;-75
2022/11/05 03:38:54;;;;;;;9.63;4.35;;;;;;;;;;5088414;28;22015;-75
2022/11/05 03:41:21;;;;;;;10.82;4.68;;;;;;;;;;5091973;28;20437;-75
2022/11/05 03:43:49;;;;;;;11.40;4.78;;;;;;;;;;5072218;28;20420;-75
2022/11/05 03:46:18;;;;;;;10.63;4.60;;;;;;;;;;5091019;28;20410;-75
2022/11/05 03:48:46;;;;;;;11.98;4.82;;;;;;;;;;5091434;28;20423;-74
2022/11/05 03:51:31;;;;;;;8.32;4.68;;;;;;;;;;5088974;28;20483;-74
2022/11/05 03:53:59;;;;;;;10.32;4.93;;;;;;;;;;5086719;28;20417;-74
2022/11/05 03:56:31;;;;;;;11.77;5.20;;;;;;;;;;5090254;28;20414;-74
2022/11/05 03:58:58;;;;;;;12.07;5.80;;;;;;;;;;5089772;28;20402;-75
2022/11/05 04:01:25;;;;;;;12.60;6.07;;;;;;;;;;5086740;28;20418;-74
2022/11/05 04:03:51;;;;;;;13.48;6.03;;;;;;;;;;5111270;28;20454;-74
2022/11/05 04:14:32;;;;;;;12.68;6.18;;;;;;;;;;5088762;28;20437;-74
2022/11/05 04:17:08;;;;;;;13.52;6.63;;;;;;;;;;5089801;28;20433;-75
2022/11/05 04:25:09;;;;;;;11.98;6.55;;;;;;;;;;5092172;28;20421;-74
2022/11/05 04:27:35;;;;;;;14.60;6.35;;;;;;;;;;5092947;28;20969;-75
2022/11/05 04:30:20;;;;;;;17.48;6.72;;;;;;;;;;5071808;28;20421;-75
2022/11/05 04:33:04;;;;;;;12.97;6.87;;;;;;;;;;5109002;28;20419;-75
2022/11/05 04:35:32;;;;;;;12.70;7.03;;;;;;;;;;5104376;28;20417;-74
2022/11/05 04:37:59;;;;;;;14.05;6.97;;;;;;;;;;5093943;28;20517;-75
2022/11/05 04:40:25;;;;;;;15.18;7.32;;;;;;;;;;5092483;28;20844;-75
2022/11/05 04:42:53;;;;;;;15.27;7.27;;;;;;;;;;5095197;28;20455;-74
2022/11/05 04:45:19;;;;;;;19.13;8.00;;;;;;;;;;5087877;28;20428;-74
2022/11/05 04:47:45;;;;;;;14.13;7.47;;;;;;;;;;5093537;28;20475;-74
2022/11/05 04:50:12;;;;;;;17.05;8.13;;;;;;;;;;5092403;28;20832;-74
2022/11/05 04:52:38;;;;;;;16.25;8.18;;;;;;;;;;5093696;28;20417;-74
2022/11/05 04:55:05;;;;;;;15.75;8.13;;;;;;;;;;5112510;28;20475;-75
2022/11/05 04:57:31;;;;;;;14.52;7.90;;;;;;;;;;5092327;28;20783;-74
2022/11/05 04:59:57;;;;;;;14.05;8.10;;;;;;;;;;5088208;28;20427;-74
2022/11/05 05:02:23;;;;;;;17.02;8.07;;;;;;;;;;5073952;28;20769;-75
2022/11/05 05:04:49;;;;;;;16.73;8.88;;;;;;;;;;5094761;28;20398;-75
2022/11/05 05:07:15;;;;;;;18.20;8.30;;;;;;;;;;5085713;28;20972;-74
2022/11/05 05:09:41;;;;;;;14.52;8.35;;;;;;;;;;5102308;28;20471;-75
2022/11/05 05:12:07;;;;;;;15.20;8.55;;;;;;;;;;5086978;28;20435;-75
2022/11/05 05:14:34;;;;;;;19.30;9.18;;;;;;;;;;5093115;28;20421;-74
2022/11/05 05:17:00;;;;;;;15.95;9.00;;;;;;;;;;5090216;28;20444;-75
2022/11/05 05:19:26;;;;;;;15.67;8.60;;;;;;;;;;5092588;28;20490;-75
2022/11/05 05:21:52;;;;;;;16.70;9.43;;;;;;;;;;5095516;28;20414;-74
2022/11/05 05:24:20;;;;;;;14.43;9.32;;;6.00;99.90;;;;;;5092365;28;20557;-74
2022/11/05 05:26:49;;;;;;;17.10;9.50;;;;;;;;;;5089938;28;20940;-75
2022/11/05 05:29:16;;;;;;;16.37;9.00;;;;;;;;;;5104151;28;20465;-75
2022/11/05 05:31:42;;;;;;;15.68;8.77;;;;;;;;;;5101805;28;20835;-75
2022/11/05 05:34:10;;;;;;;19.27;10.20;;;;;;;;;;5107241;28;20427;-75
2022/11/05 05:36:36;;;;;;;16.50;9.70;;;;;;;;;;5090298;28;20426;-75
2022/11/05 05:39:05;;;;;;;16.80;9.63;;;;;;;;;;5093416;28;20926;-74
2022/11/05 05:41:31;;;;;;;19.90;10.20;;;;;;;;;;5089119;28;20468;-74
2022/11/05 05:43:57;;;;;;;22.75;10.38;;;;;;;;;;5089383;28;20422;-74
2022/11/05 05:46:24;;;;;;;20.30;10.53;;;;;;;;;;5067860;28;20442;-75
2022/11/05 05:48:50;;;;;;;17.58;10.57;;;;;;;;;;5110119;28;20456;-74
2022/11/05 05:51:17;;;;;;;16.42;9.55;;;;;;;;;;5080355;28;20418;-75
2022/11/05 05:53:43;;;;;;;16.88;10.13;;;;;;;;;;5074335;28;20445;-74
2022/11/05 05:56:09;;;;;;;17.55;10.10;;;;;;;;;;5071078;28;20421;-74
2022/11/05 05:58:37;;;;;;;17.25;9.57;;;5.90;99.90;;;;;;5071353;28;20418;-74
2022/11/05 06:01:06;;;;;;;16.63;9.95;;;6.10;99.90;;;;;;5091687;28;20457;-75
2022/11/05 06:03:32;;;;;;;18.70;10.30;;;;;;;;;;5091515;28;20426;-75
2022/11/05 06:06:06;;;;;;;16.60;9.30;;;5.90;99.90;;;;;;5090965;28;20466;-75
2022/11/05 06:08:33;;;;;;;19.88;10.23;;;;;;;;;;5087929;28;20426;-75
2022/11/05 06:10:59;;;;;;;19.17;9.57;;;;;;;;;;5075403;28;20394;-75
2022/11/05 06:13:26;;;;;;;16.70;9.70;;;;;;;;;;5089051;28;20509;-75
2022/11/05 06:15:52;;;;;;;18.95;10.23;;;;;;;;;;5076500;28;20773;-75
2022/11/05 06:18:18;;;;;;;21.35;10.27;;;;;;;;;;5094421;28;20482;-75
2022/11/05 06:20:44;;;;;;;18.85;10.40;;;;;;;;;;5091412;28;20421;-75
2022/11/05 06:23:10;;;;;;;18.92;10.00;;;;;;;;;;5088143;28;20479;-75
2022/11/05 06:25:36;;;;;;;17.70;10.30;;;;;;;;;;5088379;28;20413;-75
2022/11/05 06:28:02;;;;;;;18.67;10.05;;;;;;;;;;5088733;28;20948;-75
2022/11/05 06:30:28;;;;;;;19.63;9.80;;;;;;;;;;5100085;28;20447;-75
2022/11/05 06:32:54;;;;;;;15.95;9.73;;;;;;;;;;5085009;28;20479;-75
2022/11/05 06:35:20;;;;;;;17.98;9.45;;;;;;;;;;5089581;28;20425;-75
2022/11/05 06:37:46;;;;;;;16.77;10.03;;;;;;;;;;5089456;28;20443;-76
2022/11/05 06:40:12;;;;;;;17.08;9.35;;;;;;;;;;5089641;28;20398;-75
2022/11/05 06:42:39;;;;;;;17.58;9.50;;;;;;;;;;5084722;28;20425;-75
2022/11/05 06:45:05;;;;;;;15.57;9.20;;;;;;;;;;5110473;28;20498;-75
2022/11/05 06:47:31;;;;;;;16.85;9.45;;;;;;;;;;5090232;28;20914;-76
2022/11/05 06:50:00;;;;;;;16.15;9.23;;;;;;;;;;5089070;28;20779;-75
2022/11/05 06:52:29;;;;;;;17.27;9.07;;;;;;;;;;5089409;28;20426;-76
2022/11/05 06:54:56;;;;;;;16.08;9.75;;;;;;;;;;5089036;28;20414;-75
2022/11/05 06:57:22;;;;;;;13.20;8.90;;;;;;;;;;5092615;28;20422;-75
2022/11/05 06:59:48;;;;;;;16.10;9.33;;;;;;;;;;5072219;28;20751;-75
2022/11/05 07:02:15;;;;;;;18.10;9.57;;;;;;;;;;5073335;28;20425;-76
2022/11/05 07:04:41;;;;;;;14.20;9.13;;;;;;;;;;5056345;28;20420;-75
2022/11/05 07:07:07;;;;;;;19.52;9.88;;;;;;;;;;5057728;28;20473;-76
2022/11/05 07:09:37;;;;;;;16.40;9.40;;;;;;;;;;5070132;28;20417;-75
2022/11/05 07:12:03;;;;;;;15.48;9.80;;;;;;;;;;5059898;28;20458;-76
2022/11/05 07:14:29;;;;;;;27.35;12.35;;;;;;;;;;5067706;28;20429;-76
2022/11/05 07:16:56;;;;;;;34.08;11.90;;;6.20;99.90;;;;;;5074103;28;20508;-76
2022/11/05 07:19:22;;;;;;;20.42;10.07;;;;;;;;;;5087810;28;20804;-76
2022/11/05 07:21:49;;;;;;;26.85;12.43;;;;;;;;;;5050909;28;20781;-75
2022/11/05 07:24:15;;;;;;;62.90;15.45;;;;;;;;;;5066326;28;20986;-77
2022/11/05 07:26:41;;;;;;;70.38;16.27;;;;;;;;;;5072800;28;20422;-76
2022/11/05 07:29:08;;;;;;;84.20;15.43;;;;;;;;;;5086491;28;20426;-76
2022/11/05 07:31:34;;;;;;;38.13;13.05;;;;;;;;;;5073388;28;20507;-75
2022/11/05 07:34:00;;;;;;;16.45;10.60;;;;;;;;;;5084876;28;20428;-77
2022/11/05 07:36:26;;;;;;;47.25;13.88;;;;;;;;;;5085213;28;20429;-74
2022/11/05 07:38:52;;;;;;;47.25;17.48;;;;;;;;;;5054584;28;20573;-74
2022/11/05 07:41:18;;;;;;;22.03;11.23;;;;;;;;;;5089759;28;20449;-76
2022/11/05 07:43:44;;;;;;;13.65;8.82;;;;;;;;;;5083195;28;20423;-76
2022/11/05 07:46:10;;;;;;;14.52;7.38;;;;;;;;;;5089214;28;20422;-76
2022/11/05 07:48:36;;;;;;;12.00;8.10;;;;;;;;;;5070425;28;20501;-75
2022/11/05 07:51:02;;;;;;;12.30;7.60;;;;;;;;;;5072091;28;20437;-75
2022/11/05 07:53:29;;;;;;;13.98;7.00;;;;;;;;;;5082453;28;20422;-76
2022/11/05 07:55:56;;;;;;;11.43;6.50;;;;;;;;;;5084027;28;20458;-76
2022/11/05 07:58:22;;;;;;;11.90;6.20;;;;;;;;;;5067888;28;20413;-76
2022/11/05 08:00:48;;;;;;;15.23;5.90;;;;;;;;;;5086145;28;20429;-77
2022/11/05 08:03:16;;;;;;;10.93;5.90;;;7.90;99.90;;;;;;5085827;28;20429;-77
2022/11/05 08:05:44;;;;;;;10.18;5.72;;;8.40;99.90;;;;;;5087819;28;20429;-76
2022/11/05 08:08:13;;;;;;;9.05;5.20;;;;;;;;;;5087298;28;20425;-76
2022/11/05 08:10:40;;;;;;;11.98;5.63;;;;;;;;;;5067765;28;20436;-76
2022/11/05 08:13:06;;;;;;;9.65;4.90;;;;;;;;;;5089015;28;20424;-76
2022/11/05 08:15:32;;;;;;;9.57;5.05;;;;;;;;;;5068503;28;20949;-76
2022/11/05 08:17:59;;;;;;;7.80;4.70;;;;;;;;;;5088810;28;20952;-76
2022/11/05 08:20:26;;;;;;;8.88;4.65;;;;;;;;;;5087089;28;20506;-76
2022/11/05 08:22:53;;;;;;;9.27;5.05;;;;;;;;;;5071260;28;20431;-76
2022/11/05 08:25:19;;;;;;;7.38;4.80;;;;;;;;;;5069684;28;20417;-76
2022/11/05 08:27:45;;;;;;;11.10;5.13;;;;;;;;;;5091061;28;20426;-76
2022/11/05 08:30:11;;;;;;;10.40;5.20;;;;;;;;;;5067885;28;21741;-76
2022/11/05 08:32:37;;;;;;;9.27;4.85;;;;;;;;;;5087743;28;20414;-76
2022/11/05 08:35:03;;;;;;;11.73;5.05;;;;;;;;;;5088736;28;20421;-76
2022/11/05 08:37:30;;;;;;;9.00;4.72;;;;;;;;;;5088117;28;20774;-75
2022/11/05 08:39:56;;;;;;;10.32;6.15;;;;;;;;;;5069156;28;20426;-74
2022/11/05 08:42:22;;;;;;;8.38;4.85;;;;;;;;;;5065913;28;20452;-75
2022/11/05 08:44:48;;;;;;;8.45;4.80;;;;;;;;;;5072451;28;20922;-75
2022/11/05 08:47:14;;;;;;;7.55;4.45;;;;;;;;;;5072456;28;20472;-75
2022/11/05 08:49:40;;;;;;;9.70;4.45;;;;;;;;;;5052052;28;20429;-75
2022/11/05 08:52:06;;;;;;;8.30;5.18;;;;;;;;;;5070727;28;20421;-76
2022/11/05 08:54:32;;;;;;;8.02;3.97;;;;;;;;;;5086590;28;20961;-76
2022/11/05 08:56:58;;;;;;;9.40;4.10;;;;;;;;;;5071469;28;20484;-76
2022/11/05 08:59:24;;;;;;;9.40;4.25;;;;;;;;;;5067630;28;20506;-75
2022/11/05 09:01:50;;;;;;;10.90;6.70;;;;;;;;;;5089735;28;20435;-76
2022/11/05 09:04:16;;;;;;;9.65;4.55;;;;;;;;;;5088788;28;20422;-76
2022/11/05 09:06:42;;;;;;;9.68;3.97;;;;;;;;;;5085278;28;20474;-76
2022/11/05 09:09:08;;;;;;;7.68;3.80;;;;;;;;;;5088799;28;20421;-76
2022/11/05 09:11:35;;;;;;;9.18;3.42;;;;;;;;;;5071761;28;20432;-76
2022/11/05 09:14:01;;;;;;;7.25;3.20;;;;;;;;;;5056594;28;20930;-76
2022/11/05 09:16:27;;;;;;;8.35;4.10;;;;;;;;;;5085049;28;20431;-75
2022/11/05 09:18:56;;;;;;;5.45;3.33;;;;;;;;;;5051600;28;20427;-76
2022/11/05 09:21:22;;;;;;;6.43;3.53;;;;;;;;;;5066125;28;20413;-75
2022/11/05 09:23:48;;;;;;;6.15;3.20;;;;;;;;;;5086973;28;20459;-75
2022/11/05 09:26:14;;;;;;;8.02;4.32;;;;;;;;;;5054185;28;20417;-75
2022/11/05 09:28:42;;;;;;;8.38;2.95;;;;;;;;;;5054629;28;20439;-75
2022/11/05 09:31:09;;;;;;;8.30;3.10;;;11.80;99.90;;;;;;5071012;28;20428;-75
2022/11/05 09:33:36;;;;;;;7.97;2.88;;;;;;;;;;5085835;28;20428;-76
2022/11/05 09:36:03;;;;;;;5.65;2.80;;;;;;;;;;5090528;28;20422;-76
2022/11/05 09:38:29;;;;;;;7.50;2.97;;;;;;;;;;5088415;28;20425;-76
2022/11/05 09:41:05;;;;;;;7.28;3.00;;;;;;;;;;5054873;28;20420;-78
2022/11/05 09:43:37;;;;;;;5.78;3.30;;;;;;;;;;5085555;28;20424;-77
2022/11/05 09:46:05;;;;;;;5.63;3.00;;;;;;;;;;5097693;28;20418;-77
2022/11/05 09:48:32;;;;;;;6.22;2.75;;;;;;;;;;5094635;28;20438;-78
2022/11/05 09:50:59;;;;;;;7.32;2.80;;;;;;;;;;5089300;28;20413;-77
2022/11/05 09:53:27;;;;;;;5.17;2.60;;;;;;;;;;5082174;28;20757;-78
2022/11/05 09:55:55;;;;;;;7.90;3.00;;;;;;;;;;5094663;28;20441;-77
2022/11/05 09:58:42;;;;;;;6.38;2.45;;;;;;;;;;5074614;28;20434;-77
2022/11/05 10:01:18;;;;;;;12.32;2.97;;;;;;;;;;5087035;28;20412;-77
2022/11/05 10:03:47;;;;;;;7.60;2.75;;;;;;;;;;5066690;28;20467;-77
2022/11/05 10:06:19;;;;;;;6.00;2.70;;;12.40;99.90;;;;;;5090431;28;20987;-78
2022/11/05 10:08:54;;;;;;;6.93;2.65;;;12.20;99.90;;;;;;5086305;28;20467;-77
2022/11/05 10:11:24;;;;;;;6.22;2.50;;;;;;;;;;5082886;28;20498;-78
2022/11/05 10:13:54;;;;;;;6.90;2.63;;;;;;;;;;5085726;28;20437;-77
2022/11/05 10:16:25;;;;;;;5.88;2.47;;;;;;;;;;5092836;28;20479;-78
2022/11/05 10:19:06;;;;;;;5.50;2.63;;;;;;;;;;5089315;28;21253;-78
2022/11/05 10:21:32;;;;;;;5.05;2.10;;;;;;;;;;5091124;28;20591;-78
2022/11/05 10:24:01;;;;;;;5.40;2.25;;;;;;;;;;5068113;28;20424;-78
2022/11/05 10:26:27;;;;;;;5.07;2.40;;;;;;;;;;5078189;28;20493;-78
2022/11/05 10:28:56;;;;;;;6.30;2.55;;;;;;;;;;5085743;28;20415;-77
2022/11/05 10:31:23;;;;;;;7.53;2.50;;;;;;;;;;5072026;28;20422;-78
2022/11/05 10:34:01;;;;;;;5.40;2.28;;;12.80;99.90;;;;;;5071864;28;20449;-77
2022/11/05 10:36:30;;;;;;;6.22;2.35;;;;;;;;;;5086316;28;20440;-77
2022/11/05 10:38:59;;;;;;;6.82;2.20;;;;;;;;;;5072070;28;20838;-76
2022/11/05 10:41:30;;;;;;;6.57;2.50;;;;;;;;;;5083614;28;20418;-76
2022/11/05 10:44:04;;;;;;;11.05;2.63;;;;;;;;;;5074668;28;20755;-75
2022/11/05 10:46:42;;;;;;;4.60;2.20;;;;;;;;;;5091485;28;20430;-75
2022/11/05 10:49:17;;;;;;;4.65;2.03;;;;;;;;;;5092057;28;20945;-76
2022/11/05 10:51:45;;;;;;;7.65;2.17;;;12.80;99.90;;;;;;5090103;28;20510;-75
2022/11/05 10:54:20;;;;;;;7.57;2.15;;;12.80;99.90;;;;;;5096062;28;20770;-77
2022/11/05 10:56:46;;;;;;;5.15;2.20;;;;;;;;;;5074140;28;20460;-78
2022/11/05 10:59:39;;;;;;;4.72;2.03;;;;;;;;;;5074091;28;20428;-77
2022/11/05 11:02:11;;;;;;;5.70;2.05;;;;;;;;;;5070911;28;20486;-78
2022/11/05 11:04:37;;;;;;;6.80;2.00;;;;;;;;;;5070629;28;20402;-76
2022/11/05 11:07:03;;;;;;;6.93;2.10;;;;;;;;;;5054452;28;20417;-76
2022/11/05 11:09:35;;;;;;;3.70;1.83;;;;;;;;;;5075922;28;20426;-76
2022/11/05 11:12:04;;;;;;;5.18;1.83;;;;;;;;;;5070920;28;20422;-77
2022/11/05 11:14:31;;;;;;;6.70;2.10;;;;;;;;;;5085930;28;20925;-77
2022/11/05 11:17:15;;;;;;;5.35;2.10;;;;;;;;;;5072907;28;20461;-77
2022/11/05 11:19:41;;;;;;;4.90;1.80;;;13.40;99.90;;;;;;5103403;28;20444;-77
2022/11/05 11:22:08;;;;;;;6.57;1.73;;;;;;;;;;5086486;28;20418;-77
2022/11/05 11:24:38;;;;;;;7.03;1.92;;;13.40;99.90;;;;;;5085226;28;20920;-77
2022/11/05 11:27:10;;;;;;;6.57;2.10;;;;;;;;;;5064715;28;20772;-76
2022/11/05 11:29:38;;;;;;;6.47;1.70;;;;;;;;;;5109003;28;20416;-76
2022/11/05 11:32:11;;;;;;;4.20;1.80;;;;;;;;;;5090023;28;20756;-77
2022/11/05 11:34:38;;;;;;;4.90;1.60;;;13.20;99.90;;;;;;5109686;28;20404;-77
2022/11/05 11:37:26;;;;;;;5.55;1.90;;;13.50;99.90;;;;;;5111190;28;20427;-78
2022/11/05 11:39:57;;;;;;;7.25;2.10;;;;;;;;;;5070296;28;20430;-77
2022/11/05 11:42:32;;;;;;;5.43;1.80;;;13.20;99.90;;;;;;5098147;28;20771;-77
2022/11/05 11:45:04;;;;;;;4.53;1.90;;;12.80;99.90;;;;;;5097466;28;20459;-77
2022/11/05 11:47:32;;;;;;;4.78;1.70;;;12.70;99.90;;;;;;5090773;28;20452;-79
2022/11/05 11:49:59;;;;;;;4.90;1.90;;;;;;;;;;5088010;28;20398;-78
2022/11/05 11:52:30;;;;;;;5.90;1.92;;;13.00;99.90;;;;;;5077176;28;20441;-77
2022/11/05 11:55:08;;;;;;;4.10;1.70;;;;;;;;;;5067735;28;20446;-77
2022/11/05 11:57:47;;;;;;;4.45;1.70;;;12.80;99.90;;;;;;5066239;28;20422;-77
2022/11/05 12:00:16;;;;;;;4.90;1.70;;;;;;;;;;5067653;28;20411;-77
2022/11/05 12:02:42;;;;;;;7.28;2.00;;;;;;;;;;5071692;28;20496;-78
2022/11/05 12:05:26;;;;;;;4.00;1.73;;;;;;;;;;5084677;28;20418;-78
2022/11/05 12:07:56;;;;;;;5.57;1.70;;;;;;;;;;5071639;28;20527;-77
2022/11/05 12:10:40;;;;;;;4.03;1.77;;;12.30;99.90;;;;;;5066386;28;20431;-77
2022/11/05 12:13:18;;;;;;;5.88;1.90;;;;;;;;;;5072328;28;20449;-77
2022/11/05 12:15:47;;;;;;;3.17;1.50;;;;;;;;;;5072528;28;20410;-78
2022/11/05 12:18:43;;;;;;;4.32;1.77;;;12.40;99.90;;;;;;5075580;28;20427;-77
2022/11/05 12:21:28;;;;;;;4.30;1.52;;;12.50;99.90;;;;;;5077260;28;20421;-77
2022/11/05 12:23:54;;;;;;;3.47;1.45;;;;;;;;;;5071646;28;20723;-78
2022/11/05 12:26:42;;;;;;;4.65;1.75;;;12.50;99.90;;;;;;5085709;28;20427;-77
2022/11/05 12:29:11;;;;;;;4.65;1.80;;;;;;;;;;5061849;28;21012;-76
2022/11/05 12:31:46;;;;;;;4.65;1.80;;;12.50;99.90;;;;;;5086303;28;20414;-77
2022/11/05 12:34:12;;;;;;;4.55;2.17;;;;;;;;;;5063002;28;20929;-76
2022/11/05 12:36:38;;;;;;;4.30;2.03;;;;;;;;;;5070927;28;20418;-77
2022/11/05 12:39:31;;;;;;;5.28;1.95;;;;;;;;;;5071690;28;20422;-77
2022/11/05 12:42:05;;;;;;;4.85;2.00;;;12.20;99.90;;;;;;5063026;28;20418;-81
2022/11/05 12:45:22;;;;;;;5.15;2.05;;;12.10;99.90;;;;;;5075092;28;20830;-79
2022/11/05 12:47:48;;;;;;;4.78;2.08;;;;;;;;;;5060839;28;21725;-79
2022/11/05 12:50:40;;;;;;;5.57;2.30;;;12.20;99.90;;;;;;5090480;28;20414;-76
2022/11/05 12:53:31;;;;;;;6.13;2.47;;;;;;;;;;5087434;28;20432;-78
2022/11/05 12:55:59;;;;;;;7.40;2.30;;;;;;;;;;5073312;28;20421;-76
2022/11/05 12:58:28;;;;;;;4.65;2.25;;;;;;;;;;5090028;28;20428;-75
2022/11/05 13:01:00;;;;;;;5.90;2.53;;;12.30;99.90;;;;;;5090275;28;20432;-77
2022/11/05 13:03:46;;;;;;;6.10;2.50;;;;;;;;;;5073654;28;20475;-77
2022/11/05 13:06:25;;;;;;;8.20;2.70;;;;;;;;;;5072072;28;20504;-77
2022/11/05 13:08:51;;;;;;;5.72;2.60;;;;;;;;;;5085119;28;20439;-76
2022/11/05 13:11:20;;;;;;;7.45;2.67;;;;;;;;;;5073889;28;20418;-76
2022/11/05 13:14:13;;;;;;;7.27;2.63;;;12.40;99.90;;;;;;5074607;28;20424;-76
2022/11/05 13:17:00;;;;;;;9.65;3.25;;;;;;;;;;5088752;28;20471;-75
2022/11/05 13:19:29;;;;;;;8.85;3.28;;;;;;;;;;5092637;28;20484;-77
2022/11/05 13:22:35;;;;;;;9.60;3.25;;;12.00;99.90;;;;;;5073645;28;20425;-77
2022/11/05 13:25:24;;;;;;;7.20;3.17;;;12.20;99.90;;;;;;5075507;28;20435;-77
2022/11/05 13:27:57;;;;;;;10.45;3.20;;;;;;;;;;5076246;28;20426;-77
2022/11/05 13:30:36;;;;;;;6.72;3.20;;;12.40;99.90;;;;;;5091574;28;20505;-78
2022/11/05 13:33:02;;;;;;;7.88;3.45;;;;;;;;;;5088147;28;20465;-77
2022/11/05 13:35:36;;;;;;;9.27;3.80;;;;;;;;;;5073637;28;20921;-76
2022/11/05 13:40:53;;;;;;;7.68;3.45;;;;;;;;;;5090417;28;20410;-77
2022/11/05 13:43:30;;;;;;;9.93;3.57;;;;;;;;;;5068831;28;20505;-78
2022/11/05 13:45:56;;;;;;;8.68;4.00;;;;;;;;;;5089113;28;20555;-76
2022/11/05 13:48:22;;;;;;;10.27;3.88;;;;;;;;;;5089257;28;20448;-78
2022/11/05 13:50:51;;;;;;;7.65;3.63;;;;;;;;;;5087991;28;20422;-77
2022/11/05 13:53:20;;;;;;;8.77;3.70;;;;;;;;;;5072369;28;20414;-77
2022/11/05 13:56:08;;;;;;;8.98;3.70;;;12.20;99.90;;;;;;5074378;28;20808;-78
2022/11/05 13:58:41;;;;;;;10.07;3.80;;;;;;;;;;5073889;28;20418;-76
2022/11/05 14:01:19;;;;;;;8.18;3.60;;;;;;;;;;5086562;28;20413;-77
2022/11/05 14:03:50;;;;;;;7.87;3.53;;;;;;;;;;5063724;28;20510;-77
2022/11/05 14:06:23;;;;;;;11.13;3.72;;;;;;;;;;5077704;28;20536;-78
2022/11/05 14:08:49;;;;;;;11.23;3.53;;;;;;;;;;5068139;28;21498;-78
2022/11/05 14:11:21;;;;;;;10.23;4.10;;;12.00;99.90;;;;;;5069687;28;20914;-77
2022/11/05 14:13:51;;;;;;;7.03;3.90;;;12.00;99.90;;;;;;5088901;28;20931;-78
2022/11/05 14:16:17;;;;;;;7.88;3.85;;;;;;;;;;5067245;28;20423;-78
2022/11/05 14:18:45;;;;;;;8.07;3.60;;;;;;;;;;5066052;28;20429;-78
2022/11/05 14:21:46;;;;;;;8.63;4.00;;;11.80;99.90;;;;;;5070737;28;20769;-77
2022/11/05 14:24:21;;;;;;;6.93;3.70;;;;;;;;;;5062863;28;20426;-76
2022/11/05 14:27:02;;;;;;;7.15;3.70;;;;;;;;;;5067553;28;20500;-76
2022/11/05 14:29:34;;;;;;;7.18;3.75;;;;;;;;;;5083053;28;20813;-77
2022/11/05 14:32:03;;;;;;;10.70;4.15;;;;;;;;;;5088794;28;20444;-77
2022/11/05 14:34:40;;;;;;;7.50;3.65;;;;;;;;;;5071896;28;20418;-77
2022/11/05 14:37:09;;;;;;;8.13;3.95;;;;;;;;;;5088728;28;20454;-77
2022/11/05 14:39:36;;;;;;;9.33;3.87;;;11.70;99.90;;;;;;5084281;28;20426;-78
2022/11/05 14:42:18;;;;;;;8.17;4.03;;;11.60;99.90;;;;;;5080717;28;20430;-79
2022/11/05 14:45:12;;;;;;;7.07;3.60;;;11.60;99.90;;;;;;5057567;28;20430;-79
2022/11/05 14:47:43;;;;;;;7.32;3.80;;;11.80;99.90;;;;;;5079936;28;20464;-77
2022/11/05 14:50:17;;;;;;;7.75;4.43;;;11.60;99.90;;;;;;5082156;28;20415;-77
2022/11/05 14:52:50;;;;;;;9.00;4.38;;;;;;;;;;5088784;28;20452;-75
2022/11/05 14:55:26;;;;;;;11.15;4.70;;;;;;;;;;5079491;28;20454;-78
2022/11/05 14:57:52;;;;;;;8.98;4.32;;;;;;;;;;5085081;28;20441;-76
2022/11/05 15:00:31;;;;;;;8.98;4.82;;;;;;;;;;5070338;28;20420;-77
2022/11/05 15:02:58;;;;;;;10.88;4.47;;;;;;;;;;5084041;28;20432;-76
2022/11/05 15:05:32;;;;;;;8.43;4.28;;;;;;;;;;5087255;28;20424;-77
2022/11/05 15:07:58;;;;;;;11.10;4.88;;;11.30;99.90;;;;;;5070363;28;20921;-77
2022/11/05 15:10:32;;;;;;;8.13;4.65;;;;;;;;;;5086625;28;21152;-78
2022/11/05 15:13:03;;;;;;;9.97;4.43;;;;;;;;;;5072184;28;20422;-78